Greenbay, Virginia
Current Conditions -  °F | °C
As of 4:35 PM on Friday 31 Oct 2014 (Local Time) from KW81 Reporting Station
Overcast Overcast  
Wind Chill: 56°   Ceiling: 5000
Heat Index: 56°   Visibility: 10mi
Dew Point: 38°   Wind: 0mph
Humidity: 51%   Direction: NA
Pressure: 29.84"   Gusts: NA
Location:  37.131°N, 78.3033°W
Report Text: KW81 312035Z AUTO 00000KT 10SM OVC050 14/04 A2984 RMK AO1 T01350036
Loading
Personal Weather Stations






























Interactive Weather Map
Tropical Storm Tracking
New forecast layout! Learn more

10-Day Weather Forecast

Advertisements
Track Severe Weather on mobile